createdAt,value
2019-04-29T00:02:24.178Z,16.67
2019-04-29T00:05:28.082Z,13.77
2019-04-29T00:08:31.590Z,11.60
2019-04-29T00:11:35.053Z,10.30
2019-04-29T00:14:40.170Z,12.03
2019-04-29T00:17:45.286Z,12.90
2019-04-29T00:20:50.311Z,10.70
2019-04-29T00:24:03.600Z,10.93
2019-04-29T00:26:58.959Z,12.47
2019-04-29T00:30:02.565Z,12.63
2019-04-29T00:33:06.014Z,11.80
2019-04-29T00:36:09.463Z,11.47
2019-04-29T00:39:31.091Z,10.70
2019-04-29T00:42:39.065Z,12.80
2019-04-29T00:45:42.618Z,11.23
2019-04-29T00:48:46.087Z,11.17
2019-04-29T00:51:49.547Z,11.47
2019-04-29T00:54:57.325Z,13.67
2019-04-29T00:58:00.796Z,12.13
2019-04-29T01:01:08.443Z,16.10
2019-04-29T01:04:11.884Z,14.87
2019-04-29T01:07:15.356Z,11.33
2019-04-29T01:10:18.865Z,13.13
2019-04-29T01:13:22.330Z,10.77
2019-04-29T01:16:25.766Z,9.57
2019-04-29T01:19:29.236Z,13.60
2019-04-29T01:22:32.705Z,12.97
2019-04-29T01:25:36.158Z,12.53
2019-04-29T01:28:50.284Z,13.77
2019-04-29T01:31:53.715Z,13.47
2019-04-29T01:34:57.193Z,12.87
2019-04-29T01:38:00.694Z,10.30
2019-04-29T01:41:11.729Z,10.93
2019-04-29T01:44:19.217Z,11.77
2019-04-29T01:47:22.678Z,11.83
2019-04-29T01:50:26.146Z,12.63
2019-04-29T01:53:29.662Z,12.60
2019-04-29T01:56:33.121Z,13.23
2019-04-29T01:59:36.587Z,13.30
2019-04-29T02:02:40.035Z,11.63
2019-04-29T02:05:43.515Z,13.03
2019-04-29T02:08:47.321Z,10.30
2019-04-29T02:11:50.781Z,12.77
2019-04-29T02:14:54.243Z,12.90
2019-04-29T02:17:57.710Z,10.67
2019-04-29T02:21:01.198Z,13.20
2019-04-29T02:24:06.345Z,12.47
2019-04-29T02:27:09.810Z,11.67
2019-04-29T02:30:16.328Z,14.67
2019-04-29T02:33:19.790Z,14.03
2019-04-29T02:36:23.263Z,14.87
2019-04-29T02:39:37.257Z,13.13
2019-04-29T02:42:45.026Z,12.60
2019-04-29T02:45:48.487Z,14.33
2019-04-29T02:48:51.969Z,15.10
2019-04-29T02:51:55.434Z,13.53
2019-04-29T02:55:00.523Z,15.53
2019-04-29T02:58:05.619Z,15.03
2019-04-29T03:01:26.491Z,13.77
2019-04-29T03:04:34.283Z,13.67
2019-04-29T03:07:37.718Z,11.77
2019-04-29T03:10:41.183Z,11.93
2019-04-29T03:13:44.645Z,13.43
2019-04-29T03:16:48.083Z,14.33
2019-04-29T03:20:08.312Z,16.43
2019-04-29T03:23:13.387Z,13.60
2019-04-29T03:26:16.871Z,14.03
2019-04-29T03:29:22.715Z,14.63
2019-04-29T03:32:26.191Z,14.70
2019-04-29T03:35:29.731Z,16.13
2019-04-29T03:38:33.203Z,14.20
2019-04-29T03:41:36.650Z,13.33
2019-04-29T03:44:40.105Z,14.77
2019-04-29T03:47:43.574Z,16.23
2019-04-29T03:50:47.086Z,12.90
2019-04-29T03:53:50.588Z,14.83
2019-04-29T03:56:54.119Z,16.67
2019-04-29T03:59:57.585Z,16.77
2019-04-29T04:03:19.211Z,14.50
2019-04-29T04:06:24.333Z,14.13
2019-04-29T04:09:29.354Z,14.13
2019-04-29T04:12:32.796Z,14.47
2019-04-29T04:15:36.627Z,14.43
2019-04-29T04:18:40.168Z,15.07
2019-04-29T04:21:43.631Z,13.53
2019-04-29T04:24:47.117Z,15.23
2019-04-29T04:27:50.608Z,12.93
2019-04-29T04:30:54.131Z,12.50
2019-04-29T04:33:57.652Z,12.20
2019-04-29T04:37:01.084Z,10.87
2019-04-29T04:40:06.365Z,12.83
2019-04-29T04:43:09.849Z,13.03
2019-04-29T04:46:13.376Z,12.20
2019-04-29T04:49:16.903Z,11.40
2019-04-29T04:52:20.387Z,12.00
2019-04-29T04:55:25.480Z,12.17
2019-04-29T04:58:28.948Z,11.10
2019-04-29T05:01:32.399Z,11.67
2019-04-29T05:04:35.878Z,10.53
2019-04-29T05:07:39.318Z,9.90
2019-04-29T05:10:42.799Z,11.03
2019-04-29T05:13:46.255Z,10.50
2019-04-29T05:16:49.714Z,14.77
2019-04-29T05:19:53.187Z,12.20
2019-04-29T05:22:59.497Z,9.57
2019-04-29T05:26:06.063Z,9.50
2019-04-29T05:29:09.545Z,10.77
2019-04-29T05:32:12.972Z,10.37
2019-04-29T05:35:24.485Z,9.37
2019-04-29T05:38:33.547Z,8.20
2019-04-29T05:41:37.028Z,7.97
2019-04-29T05:44:57.374Z,7.37
2019-04-29T05:48:08.510Z,6.40
2019-04-29T05:51:28.854Z,8.27
2019-04-29T05:54:34.224Z,6.87
2019-04-29T05:57:37.765Z,6.53
2019-04-29T06:00:44.183Z,6.20
2019-04-29T06:03:47.653Z,6.97
2019-04-29T06:06:51.130Z,7.37
2019-04-29T06:09:54.575Z,8.30
2019-04-29T06:12:58.122Z,7.33
2019-04-29T06:16:01.599Z,7.53
2019-04-29T06:19:06.026Z,7.47
2019-04-29T06:22:09.574Z,6.70
2019-04-29T06:25:13.047Z,8.80
2019-04-29T06:28:16.494Z,7.80
2019-04-29T06:31:19.963Z,7.70
2019-04-29T06:34:23.405Z,8.00
2019-04-29T06:37:26.870Z,7.80
2019-04-29T06:40:34.956Z,7.50
2019-04-29T06:43:35.590Z,8.17
2019-04-29T06:46:39.066Z,7.67
2019-04-29T06:49:42.510Z,11.03
2019-04-29T06:52:45.978Z,7.80
2019-04-29T06:55:49.413Z,9.87
2019-04-29T06:58:52.881Z,10.63
2019-04-29T07:01:56.363Z,28.23
2019-04-29T07:04:59.802Z,10.33
2019-04-29T07:08:03.278Z,7.93
2019-04-29T07:11:06.745Z,7.80
2019-04-29T07:14:10.269Z,8.57
2019-04-29T07:17:13.739Z,10.03
2019-04-29T07:20:17.181Z,7.87
2019-04-29T07:23:20.698Z,8.03
2019-04-29T07:26:24.137Z,19.53
2019-04-29T07:29:30.768Z,9.80
2019-04-29T07:32:32.774Z,9.63
2019-04-29T07:35:38.186Z,10.60
2019-04-29T07:38:42.042Z,10.13
2019-04-29T07:41:49.540Z,9.63
2019-04-29T07:45:09.723Z,10.33
2019-04-29T07:48:13.186Z,10.37
2019-04-29T07:51:16.629Z,11.83
2019-04-29T07:54:20.119Z,14.50
2019-04-29T07:57:26.710Z,13.33
2019-04-29T08:00:34.904Z,12.93
2019-04-29T08:03:38.650Z,14.93
2019-04-29T08:06:44.785Z,12.93
2019-04-29T08:09:48.506Z,16.17
2019-04-29T08:12:53.325Z,15.67
2019-04-29T08:15:56.774Z,14.43
2019-04-29T08:19:00.242Z,23.73
2019-04-29T08:22:03.697Z,19.23
2019-04-29T08:25:08.099Z,16.10
2019-04-29T08:28:11.537Z,14.80
2019-04-29T08:31:16.648Z,15.47
2019-04-29T08:34:23.104Z,15.73
2019-04-29T08:37:25.409Z,20.53
2019-04-29T08:40:28.847Z,15.83
2019-04-29T08:43:39.978Z,16.23
2019-04-29T08:47:01.527Z,16.70
2019-04-29T08:50:06.006Z,16.73
2019-04-29T08:53:18.500Z,18.30
2019-04-29T08:56:21.950Z,15.77
2019-04-29T08:59:25.816Z,15.63
2019-04-29T09:02:35.040Z,17.27
2019-04-29T09:05:34.556Z,18.60
2019-04-29T09:08:38.030Z,15.93
2019-04-29T09:11:43.602Z,17.57
2019-04-29T09:14:46.724Z,17.87
2019-04-29T09:17:50.191Z,16.00
2019-04-29T09:20:53.666Z,14.70
2019-04-29T09:23:57.110Z,15.37
2019-04-29T09:27:05.044Z,13.33
2019-04-29T09:30:08.432Z,11.57
2019-04-29T09:33:13.194Z,12.67
2019-04-29T09:36:17.086Z,11.63
2019-04-29T09:39:21.365Z,13.53
2019-04-29T09:42:31.058Z,12.23
2019-04-29T09:45:39.267Z,11.60
2019-04-29T09:48:42.746Z,13.70
2019-04-29T09:51:46.321Z,15.13
2019-04-29T09:54:49.859Z,14.13
2019-04-29T09:57:53.312Z,13.47
2019-04-29T10:01:18.633Z,13.57
2019-04-29T10:04:21.435Z,14.10
2019-04-29T10:07:31.279Z,13.37
2019-04-29T10:10:37.301Z,14.27
2019-04-29T10:13:40.627Z,14.20
2019-04-29T10:17:01.038Z,15.43
2019-04-29T10:20:14.126Z,16.73
2019-04-29T10:23:17.610Z,14.13
2019-04-29T10:26:21.163Z,15.50
2019-04-29T10:29:26.271Z,14.93
2019-04-29T10:32:29.737Z,12.93
2019-04-29T10:35:33.268Z,14.40
2019-04-29T10:38:40.464Z,13.70
2019-04-29T10:41:43.549Z,11.63
2019-04-29T10:44:48.646Z,9.87
2019-04-29T10:47:53.770Z,9.30
2019-04-29T10:50:57.746Z,7.60
2019-04-29T10:54:01.218Z,8.43
2019-04-29T10:57:05.317Z,8.60
2019-04-29T11:00:23.798Z,7.90
2019-04-29T11:03:27.224Z,8.00
2019-04-29T11:06:31.487Z,6.50
2019-04-29T11:09:46.367Z,6.50
2019-04-29T11:12:48.551Z,7.97
2019-04-29T11:15:51.989Z,9.00
2019-04-29T11:19:00.154Z,7.43
2019-04-29T11:22:02.189Z,7.40
2019-04-29T11:25:20.188Z,7.53
2019-04-29T11:28:23.707Z,8.57
2019-04-29T11:31:27.374Z,8.07
2019-04-29T11:34:38.317Z,8.77
2019-04-29T11:37:41.745Z,8.20
2019-04-29T11:40:46.060Z,7.43
2019-04-29T11:43:50.974Z,10.77
2019-04-29T11:46:54.846Z,7.93
2019-04-29T11:49:59.957Z,9.10
2019-04-29T11:53:03.398Z,10.57
2019-04-29T11:56:06.935Z,9.07
2019-04-29T11:59:28.474Z,9.50
2019-04-29T12:02:45.536Z,8.77
2019-04-29T12:05:45.009Z,9.50
2019-04-29T12:08:53.083Z,11.30
2019-04-29T12:11:53.896Z,9.90
2019-04-29T12:15:09.122Z,9.73
2019-04-29T12:18:14.950Z,11.67
2019-04-29T12:21:28.726Z,12.17
2019-04-29T12:24:32.187Z,10.63
2019-04-29T12:27:35.629Z,13.23
2019-04-29T12:30:40.738Z,11.77
2019-04-29T12:33:48.920Z,11.77
2019-04-29T12:36:56.875Z,11.40
2019-04-29T12:40:09.861Z,12.70
2019-04-29T12:43:16.290Z,12.00
2019-04-29T12:46:24.982Z,13.60
2019-04-29T12:49:28.462Z,13.40
2019-04-29T12:52:31.910Z,15.33
2019-04-29T12:55:45.937Z,15.90
2019-04-29T12:58:50.232Z,14.77
2019-04-29T13:02:01.376Z,16.93
2019-04-29T13:05:09.645Z,14.33
2019-04-29T13:08:17.890Z,14.93
2019-04-29T13:11:35.680Z,16.87
2019-04-29T13:14:28.632Z,14.47
2019-04-29T13:18:03.072Z,16.73
2019-04-29T13:21:09.559Z,17.90
2019-04-29T13:24:13.727Z,16.67
2019-04-29T13:27:16.205Z,16.70
2019-04-29T13:30:16.490Z,16.33
2019-04-29T13:33:19.975Z,17.00
2019-04-29T13:36:25.872Z,16.30
2019-04-29T13:39:39.122Z,16.57
2019-04-29T13:42:33.918Z,19.00
2019-04-29T13:45:38.993Z,18.73
2019-04-29T13:49:12.789Z,17.17
2019-04-29T13:52:07.662Z,16.43
2019-04-29T13:55:17.856Z,16.20
2019-04-29T13:58:16.445Z,15.07
2019-04-29T14:01:33.394Z,15.53
2019-04-29T14:04:37.426Z,14.57
2019-04-29T14:07:40.871Z,15.00
2019-04-29T14:10:46.823Z,14.40
2019-04-29T14:13:49.537Z,14.97
2019-04-29T14:17:11.656Z,14.37
2019-04-29T14:19:58.179Z,12.30
2019-04-29T14:23:01.626Z,14.30
2019-04-29T14:26:05.105Z,12.10
2019-04-29T14:29:08.571Z,13.53
2019-04-29T14:32:12.022Z,11.83
2019-04-29T14:35:25.870Z,13.50
2019-04-29T14:38:29.329Z,13.03
2019-04-29T14:41:34.435Z,11.83
2019-04-29T14:44:45.633Z,12.13
2019-04-29T14:48:07.162Z,10.90
2019-04-29T14:51:11.566Z,11.13
2019-04-29T14:54:15.042Z,11.27
2019-04-29T14:57:18.522Z,12.13
2019-04-29T15:00:41.753Z,11.80
2019-04-29T15:03:52.389Z,13.73
2019-04-29T15:06:55.916Z,12.20
2019-04-29T15:09:59.438Z,12.93
2019-04-29T15:13:20.019Z,13.83
2019-04-29T15:16:26.815Z,13.53
2019-04-29T15:19:54.983Z,13.67
2019-04-29T15:22:55.437Z,13.80
2019-04-29T15:25:58.921Z,15.63
2019-04-29T15:29:02.372Z,16.13
2019-04-29T15:32:05.851Z,14.33
2019-04-29T15:35:10.034Z,15.63
2019-04-29T15:38:13.526Z,15.97
2019-04-29T15:41:17.104Z,16.83
2019-04-29T15:44:23.088Z,17.83
2019-04-29T15:47:30.691Z,21.17
2019-04-29T15:50:32.640Z,18.43
2019-04-29T15:53:37.806Z,18.20
2019-04-29T15:56:41.338Z,19.27
2019-04-29T15:59:48.889Z,20.50
2019-04-29T16:02:49.987Z,20.67
2019-04-29T16:06:19.787Z,21.43
2019-04-29T16:09:09.033Z,22.57
2019-04-29T16:12:15.594Z,21.60
2019-04-29T16:15:19.301Z,20.43
2019-04-29T16:18:22.744Z,21.77
2019-04-29T16:21:26.214Z,23.27
2019-04-29T16:24:37.415Z,22.03
2019-04-29T16:27:41.009Z,22.07
2019-04-29T16:30:40.946Z,24.20
2019-04-29T16:36:50.487Z,24.50
2019-04-29T16:39:59.800Z,25.63
2019-04-29T16:43:01.743Z,26.47
2019-04-29T16:46:12.954Z,28.50
2019-04-29T16:49:16.409Z,29.47
2019-04-29T16:52:19.854Z,27.10
2019-04-29T16:55:23.334Z,26.30
2019-04-29T16:58:26.787Z,27.77
2019-04-29T17:01:30.249Z,27.50
2019-04-29T17:04:33.889Z,32.47
2019-04-29T17:07:37.333Z,28.47
2019-04-29T17:10:45.985Z,29.97
2019-04-29T17:13:49.581Z,32.07
2019-04-29T17:16:53.055Z,33.77
2019-04-29T17:19:56.502Z,36.17
2019-04-29T17:23:00.152Z,35.10
2019-04-29T17:26:03.613Z,33.83
2019-04-29T17:29:38.594Z,39.47
2019-04-29T17:32:42.230Z,38.73
2019-04-29T17:35:17.074Z,25.83
2019-04-29T17:35:46.849Z,39.50
2019-04-29T17:38:44.613Z,35.87
2019-04-29T17:41:48.086Z,38.93
2019-04-29T17:44:51.524Z,37.10
2019-04-29T17:48:08.823Z,36.90
2019-04-29T17:51:12.685Z,37.63
2019-04-29T17:54:27.094Z,36.27
2019-04-29T17:57:41.254Z,42.03
2019-04-29T18:00:56.176Z,41.43
2019-04-29T18:04:05.987Z,34.60
2019-04-29T18:07:25.084Z,37.00
2019-04-29T18:10:30.067Z,37.83
2019-04-29T18:13:35.137Z,39.90
2019-04-29T18:16:43.700Z,36.60
2019-04-29T18:19:47.335Z,38.93
2019-04-29T18:23:01.394Z,38.40
2019-04-29T18:26:06.563Z,39.40
2019-04-29T18:29:10.078Z,41.20
2019-04-29T18:32:13.559Z,39.43
2019-04-29T18:35:17.123Z,41.03
2019-04-29T18:38:20.724Z,39.37
2019-04-29T18:41:26.781Z,38.77
2019-04-29T18:44:29.450Z,40.87
2019-04-29T18:47:35.441Z,43.03
2019-04-29T18:50:38.969Z,41.83
2019-04-29T18:53:42.505Z,39.50
2019-04-29T18:56:45.989Z,41.57
2019-04-29T18:59:49.429Z,40.63
2019-04-29T19:02:58.389Z,42.20
2019-04-29T19:06:03.251Z,38.47
2019-04-29T19:09:17.537Z,41.00
2019-04-29T19:12:11.437Z,46.80
2019-04-29T19:15:17.858Z,42.67
2019-04-29T19:18:21.282Z,44.37
2019-04-29T19:21:30.419Z,46.47
2019-04-29T19:24:31.563Z,43.50
2019-04-29T19:27:39.807Z,42.40
2019-04-29T19:30:40.377Z,42.83
2019-04-29T19:33:43.842Z,44.47
2019-04-29T19:36:50.575Z,47.70
2019-04-29T19:39:56.251Z,46.97
2019-04-29T19:42:57.716Z,46.77
2019-04-29T19:46:01.249Z,49.60
2019-04-29T19:49:09.675Z,47.03
2019-04-29T19:52:10.134Z,50.10
2019-04-29T19:55:13.729Z,45.40
2019-04-29T19:58:17.859Z,50.57
2019-04-29T20:01:28.230Z,47.53
2019-04-29T20:04:29.398Z,50.53
2019-04-29T20:07:41.222Z,49.63
2019-04-29T20:10:46.711Z,48.27
2019-04-29T20:13:59.251Z,52.00
2019-04-29T20:16:57.559Z,49.70
2019-04-29T20:20:15.543Z,46.97
2019-04-29T20:23:24.679Z,49.80
2019-04-29T20:26:29.578Z,52.80
2019-04-29T20:29:33.970Z,49.97
2019-04-29T20:32:36.180Z,53.57
2019-04-29T20:35:44.376Z,51.77
2019-04-29T20:38:45.592Z,45.63
2019-04-29T20:41:49.362Z,51.83
2019-04-29T20:44:54.751Z,48.07
2019-04-29T20:47:58.260Z,48.03
2019-04-29T20:51:11.576Z,54.40
2019-04-29T20:54:15.987Z,55.87
2019-04-29T20:57:20.037Z,51.70
2019-04-29T21:00:24.837Z,51.40
2019-04-29T21:03:32.150Z,48.13
2019-04-29T21:06:39.173Z,53.57
2019-04-29T21:09:39.190Z,54.30
2019-04-29T21:12:47.390Z,53.03
2019-04-29T21:15:53.778Z,53.77
2019-04-29T21:18:59.333Z,50.63
2019-04-29T21:22:02.809Z,52.50
2019-04-29T21:25:07.194Z,53.10
2019-04-29T21:28:10.705Z,53.13
2019-04-29T21:31:18.553Z,57.37
2019-04-29T21:34:21.109Z,56.07
2019-04-29T21:37:29.038Z,61.90
2019-04-29T21:40:40.130Z,57.10
2019-04-29T21:43:53.565Z,59.93
2019-04-29T21:46:55.147Z,66.97
2019-04-29T21:49:58.560Z,61.17
2019-04-29T21:53:03.003Z,64.17
2019-04-29T21:56:09.460Z,59.47
2019-04-29T21:59:12.452Z,62.07
2019-04-29T22:02:17.539Z,61.83
2019-04-29T22:05:21.094Z,63.90
2019-04-29T22:08:27.571Z,63.43
2019-04-29T22:11:29.786Z,67.40
2019-04-29T22:14:34.880Z,65.00
2019-04-29T22:17:38.491Z,63.33
2019-04-29T22:20:43.319Z,67.63
2019-04-29T22:23:50.947Z,67.10
2019-04-29T22:26:56.488Z,68.27
2019-04-29T22:29:57.315Z,60.10
2019-04-29T22:33:00.765Z,63.43
2019-04-29T22:36:05.375Z,59.07
2019-04-29T22:39:08.934Z,61.90
2019-04-29T22:42:14.017Z,60.50
2019-04-29T22:45:17.636Z,61.30
2019-04-29T22:48:21.090Z,57.67
2019-04-29T22:51:25.473Z,57.27
2019-04-29T22:54:29.073Z,58.37
2019-04-29T22:57:32.516Z,51.43
2019-04-29T23:00:36.325Z,58.57
2019-04-29T23:03:39.817Z,57.63
2019-04-29T23:06:44.650Z,55.10
2019-04-29T23:09:48.475Z,51.97
2019-04-29T23:12:53.974Z,53.57
2019-04-29T23:16:01.114Z,54.57
2019-04-29T23:19:02.270Z,55.63
2019-04-29T23:22:15.383Z,50.03
2019-04-29T23:25:26.700Z,48.77
2019-04-29T23:28:28.430Z,52.40
2019-04-29T23:31:32.026Z,52.13
2019-04-29T23:34:36.380Z,54.87
2019-04-29T23:37:39.916Z,58.93
2019-04-29T23:40:43.361Z,52.23
2019-04-29T23:43:46.818Z,54.90
2019-04-29T23:46:50.274Z,59.03
2019-04-29T23:49:53.757Z,56.73
2019-04-29T23:52:57.190Z,57.30
2019-04-29T23:56:05.679Z,56.00
2019-04-29T23:59:09.864Z,58.40
